SBOSBO GOT / ESGG
Speedbird OnlineSpeedbird Online GOT / ESGG

Gothenburg-Landvetter Airport
18:36 7.4°C

Location Gothenborg, Sweden
Latitude: 57.662799835205
Longitude: 12.279800415039
Local Time 18:36 on 17 Apr 2024
UTC +2 hours (Europe/Stockholm)
Currency £1 equals SEK 13.63
METAR ESGG 171550Z 32010KT 290V350 CAVOK 07/M02 Q1009
TAF TAF ESGG 171430Z 1715/1815 31007KT 9999 SCT050 PROB40 1715/1723 BKN040CB PROB40 1723/1804 1200 BCFG BKN004 PROB40 1804/1809 BKN012
Weather As Of 17 Apr 2024 18:36
Description Clear sky
Wind 13 km/h from North-West (330°)
Cloud Cover 0%
Precipitation Rain: none, Snow: none
Sunrise 05:54
Sunset 20:25
NOTAM 3 active NOTAM
Rotations During the last 90 days there were
213 flights from LHR
46 flights from CBG
32 flights from BLL
3 flights from
209 flights to LHR
39 flights to CBG
30 flights to BLL
1 flights to MAN
Lounges The Lounge by Menzies Aviation, Terminal 1
Web Airport Website | Wikipedia
Codes IATA: GOT
ICAO: ESGG
Altitude 154 Meter / 506 Feet
Distance 1,038 KM / 645 Miles
from London.
Runways
RunwayLength (m)Surface
033299Asphalt
213299Asphalt
Radio
TypeDescriptionFrequency
ATISATIS118.375
GCCDGND121.9
TCAGOTEBORG APP124.68
TWRTWR118.6
Live ATC



Support Speedbird Online

© 2017-2024 Speedbird Online